createdAt,value
2022-09-10T00:02:21.059Z,0.93
2022-09-10T00:04:48.176Z,0.80
2022-09-10T00:07:15.235Z,1.40
2022-09-10T00:09:43.007Z,1.10
2022-09-10T00:12:11.166Z,0.70
2022-09-10T00:14:38.169Z,1.20
2022-09-10T00:17:05.451Z,0.75
2022-09-10T00:19:32.784Z,1.10
2022-09-10T00:21:59.971Z,0.85
2022-09-10T00:24:27.339Z,1.00
2022-09-10T00:26:54.446Z,0.80
2022-09-10T00:29:21.499Z,0.90
2022-09-10T00:31:49.049Z,1.05
2022-09-10T00:34:16.195Z,0.95
2022-09-10T00:36:44.212Z,0.57
2022-09-10T00:39:15.375Z,0.63
2022-09-10T00:41:44.701Z,0.63
2022-09-10T00:44:44.766Z,0.52
2022-09-10T00:47:22.138Z,0.57
2022-09-10T00:49:56.034Z,0.65
2022-09-10T00:52:23.224Z,0.73
2022-09-10T00:54:51.104Z,0.95
2022-09-10T00:57:22.738Z,1.10
2022-09-10T00:59:55.177Z,1.38
2022-09-10T01:02:22.247Z,1.65
2022-09-10T01:04:50.716Z,1.17
2022-09-10T01:07:19.171Z,2.10
2022-09-10T01:09:46.353Z,1.70
2022-09-10T01:12:22.350Z,1.20
2022-09-10T01:15:08.521Z,1.00
2022-09-10T01:18:13.725Z,0.95
2022-09-10T01:20:43.993Z,0.80
2022-09-10T01:26:20.657Z,0.93
2022-09-10T01:29:02.805Z,1.05
2022-09-10T01:31:42.135Z,0.80
2022-09-10T01:34:18.984Z,0.98
2022-09-10T01:36:52.079Z,0.80
2022-09-10T01:39:22.260Z,0.93
2022-09-10T01:41:52.752Z,0.70
2022-09-10T01:44:51.354Z,1.08
2022-09-10T01:47:46.550Z,0.90
2022-09-10T01:50:24.944Z,0.90
2022-09-10T01:53:14.808Z,1.90
2022-09-10T01:55:54.071Z,0.88
2022-09-10T01:58:29.610Z,0.88
2022-09-10T02:01:25.784Z,0.73
2022-09-10T02:04:01.433Z,0.60
2022-09-10T02:06:30.684Z,0.90
2022-09-10T02:09:01.865Z,1.48
2022-09-10T02:11:29.988Z,3.90
2022-09-10T02:14:00.439Z,2.55
2022-09-10T02:16:58.892Z,1.50
2022-09-10T02:19:27.250Z,1.38
2022-09-10T02:21:56.827Z,1.60
2022-09-10T02:24:24.644Z,1.20
2022-09-10T02:26:51.527Z,0.82
2022-09-10T02:29:19.468Z,1.00
2022-09-10T02:31:47.529Z,1.00
2022-09-10T02:34:18.081Z,1.67
2022-09-10T02:36:47.165Z,4.32
2022-09-10T02:39:14.677Z,3.15
2022-09-10T02:41:41.615Z,7.38
2022-09-10T02:44:08.910Z,8.82
2022-09-10T02:46:37.094Z,9.95
2022-09-10T02:49:03.956Z,2.63
2022-09-10T02:51:37.081Z,1.08
2022-09-10T02:54:04.531Z,2.08
2022-09-10T02:56:31.476Z,7.30
2022-09-10T02:58:58.351Z,5.57
2022-09-10T03:01:26.565Z,6.70
2022-09-10T03:03:59.258Z,7.78
2022-09-10T03:06:27.309Z,3.35
2022-09-10T03:08:57.774Z,2.08
2022-09-10T03:11:27.602Z,1.60
2022-09-10T03:13:55.758Z,1.33
2022-09-10T03:16:24.456Z,1.25
2022-09-10T03:18:52.422Z,1.40
2022-09-10T03:21:25.279Z,1.63
2022-09-10T03:23:53.933Z,1.30
2022-09-10T03:26:25.620Z,1.50
2022-09-10T03:28:54.022Z,1.05
2022-09-10T03:31:23.710Z,1.05
2022-09-10T03:33:51.262Z,1.27
2022-09-10T03:36:18.996Z,1.00
2022-09-10T03:38:48.232Z,1.00
2022-09-10T03:41:15.427Z,0.95
2022-09-10T03:43:42.424Z,0.80
2022-09-10T03:46:12.171Z,0.80
2022-09-10T03:48:43.864Z,1.10
2022-09-10T03:51:11.459Z,0.93
2022-09-10T03:53:39.333Z,1.20
2022-09-10T03:56:08.739Z,0.98
2022-09-10T03:58:36.204Z,1.05
2022-09-10T04:01:04.338Z,0.80
2022-09-10T04:03:34.465Z,0.80
2022-09-10T04:06:01.306Z,0.88
2022-09-10T04:08:28.117Z,1.00
2022-09-10T04:10:57.149Z,0.90
2022-09-10T04:13:25.182Z,1.17
2022-09-10T04:15:53.356Z,0.95
2022-09-10T04:18:21.654Z,1.08
2022-09-10T04:20:49.021Z,0.82
2022-09-10T04:23:16.694Z,0.90
2022-09-10T04:25:44.734Z,1.10
2022-09-10T04:28:11.729Z,0.90
2022-09-10T04:30:40.446Z,0.90
2022-09-10T04:33:09.464Z,0.70
2022-09-10T04:35:36.312Z,1.10
2022-09-10T04:38:06.328Z,0.90
2022-09-10T04:40:35.294Z,1.13
2022-09-10T04:43:02.440Z,0.90
2022-09-10T04:45:29.704Z,0.98
2022-09-10T04:47:57.089Z,0.70
2022-09-10T04:50:24.551Z,1.00
2022-09-10T04:53:10.642Z,0.95
2022-09-10T04:55:40.331Z,0.77
2022-09-10T04:58:07.888Z,0.70
2022-09-10T05:00:35.448Z,0.88
2022-09-10T05:03:04.678Z,1.02
2022-09-10T05:05:32.616Z,0.80
2022-09-10T05:08:00.402Z,0.90
2022-09-10T05:10:28.295Z,1.08
2022-09-10T05:12:57.201Z,0.80
2022-09-10T05:15:25.958Z,0.65
2022-09-10T05:17:53.558Z,0.52
2022-09-10T05:20:21.206Z,0.70
2022-09-10T05:22:51.153Z,0.70
2022-09-10T05:25:18.097Z,0.80
2022-09-10T05:27:45.051Z,0.82
2022-09-10T05:30:17.963Z,0.90
2022-09-10T05:32:46.160Z,0.82
2022-09-10T05:35:14.796Z,0.70
2022-09-10T05:37:45.548Z,0.90
2022-09-10T05:40:15.145Z,1.15
2022-09-10T05:42:42.795Z,0.90
2022-09-10T05:45:10.635Z,4.75
2022-09-10T05:47:38.188Z,5.05
2022-09-10T05:50:06.550Z,2.20
2022-09-10T05:52:34.301Z,1.00
2022-09-10T05:55:05.010Z,1.10
2022-09-10T05:57:33.124Z,1.13
2022-09-10T06:00:01.657Z,1.00
2022-09-10T06:02:30.658Z,0.90
2022-09-10T06:05:00.865Z,0.90
2022-09-10T06:07:30.273Z,0.90
2022-09-10T06:10:00.710Z,0.82
2022-09-10T06:12:38.504Z,0.95
2022-09-10T06:15:07.399Z,0.80
2022-09-10T06:17:34.262Z,1.00
2022-09-10T06:20:02.720Z,0.85
2022-09-10T06:22:34.952Z,0.90
2022-09-10T06:25:02.757Z,1.10
2022-09-10T06:27:30.422Z,0.82
2022-09-10T06:29:57.706Z,1.25
2022-09-10T06:32:25.300Z,0.90
2022-09-10T06:34:52.445Z,1.10
2022-09-10T06:37:20.769Z,0.63
2022-09-10T06:39:47.664Z,0.90
2022-09-10T06:42:16.343Z,0.95
2022-09-10T06:44:58.062Z,0.90
2022-09-10T06:48:36.760Z,1.02
2022-09-10T06:50:49.903Z,0.80
2022-09-10T06:53:16.932Z,1.33
2022-09-10T06:55:44.691Z,1.10
2022-09-10T06:58:13.786Z,1.27
2022-09-10T07:00:41.608Z,1.30
2022-09-10T07:03:10.049Z,1.40
2022-09-10T07:05:37.117Z,1.40
2022-09-10T07:08:05.601Z,1.60
2022-09-10T07:10:33.115Z,1.40
2022-09-10T07:13:02.869Z,1.50
2022-09-10T07:15:30.446Z,1.30
2022-09-10T07:17:57.541Z,1.48
2022-09-10T07:20:26.260Z,1.60
2022-09-10T07:22:55.360Z,1.30
2022-09-10T07:25:26.761Z,2.67
2022-09-10T07:28:02.120Z,1.30
2022-09-10T07:30:31.523Z,1.05
2022-09-10T07:32:59.292Z,1.30
2022-09-10T07:35:28.664Z,1.00
2022-09-10T07:37:56.841Z,0.93
2022-09-10T07:40:24.333Z,1.10
2022-09-10T07:42:52.619Z,0.98
2022-09-10T07:45:19.944Z,1.27
2022-09-10T07:47:49.082Z,1.17
2022-09-10T07:50:17.018Z,1.08
2022-09-10T07:52:44.787Z,1.20
2022-09-10T07:55:14.187Z,1.23
2022-09-10T07:57:42.481Z,1.30
2022-09-10T08:00:15.564Z,1.05
2022-09-10T08:02:43.962Z,1.00
2022-09-10T08:05:17.044Z,0.95
2022-09-10T08:07:45.515Z,1.13
2022-09-10T08:10:13.586Z,1.67
2022-09-10T08:12:41.889Z,1.38
2022-09-10T08:15:11.028Z,2.72
2022-09-10T08:17:40.257Z,1.00
2022-09-10T08:20:10.073Z,2.75
2022-09-10T08:22:39.958Z,1.27
2022-09-10T08:25:07.641Z,1.35
2022-09-10T08:27:36.787Z,1.27
2022-09-10T08:30:06.704Z,1.60
2022-09-10T08:32:36.122Z,1.20
2022-09-10T08:35:07.738Z,1.23
2022-09-10T08:37:34.777Z,0.93
2022-09-10T08:40:03.373Z,1.10
2022-09-10T08:42:39.778Z,1.65
2022-09-10T08:45:16.696Z,1.48
2022-09-10T08:47:56.292Z,1.35
2022-09-10T08:50:32.669Z,1.25
2022-09-10T08:53:13.956Z,1.20
2022-09-10T08:55:47.118Z,1.30
2022-09-10T08:58:23.558Z,1.70
2022-09-10T09:00:56.415Z,2.08
2022-09-10T09:03:38.288Z,4.10
2022-09-10T09:06:13.393Z,1.13
2022-09-10T09:08:48.639Z,1.60
2022-09-10T09:11:32.691Z,1.13
2022-09-10T09:14:50.369Z,1.17
2022-09-10T09:17:37.299Z,1.33
2022-09-10T09:20:33.201Z,1.10
2022-09-10T09:23:30.555Z,1.20
2022-09-10T09:26:04.308Z,1.33
2022-09-10T09:28:38.846Z,1.73
2022-09-10T09:31:14.341Z,1.15
2022-09-10T09:33:42.244Z,1.27
2022-09-10T09:36:17.102Z,1.25
2022-09-10T09:38:49.184Z,1.42
2022-09-10T09:41:54.119Z,1.40
2022-09-10T09:44:32.484Z,1.52
2022-09-10T09:46:59.501Z,1.45
2022-09-10T09:49:28.910Z,1.15
2022-09-10T09:51:58.806Z,1.10
2022-09-10T09:57:19.713Z,1.20
2022-09-10T09:59:49.317Z,1.88
2022-09-10T10:02:24.060Z,1.55
2022-09-10T10:05:24.701Z,1.25
2022-09-10T10:07:52.250Z,3.47
2022-09-10T10:10:25.664Z,6.38
2022-09-10T10:12:55.451Z,8.43
2022-09-10T10:15:42.567Z,6.28
2022-09-10T10:18:38.355Z,1.63
2022-09-10T10:21:21.591Z,1.42
2022-09-10T10:23:49.362Z,1.05
2022-09-10T10:26:21.220Z,1.00
2022-09-10T10:28:59.932Z,1.23
2022-09-10T10:31:53.783Z,0.85
2022-09-10T10:34:55.657Z,0.90
2022-09-10T10:37:46.856Z,1.00
2022-09-10T10:40:31.390Z,1.40
2022-09-10T10:43:26.351Z,0.80
2022-09-10T10:46:13.437Z,0.80
2022-09-10T10:48:57.935Z,1.00
2022-09-10T10:51:47.665Z,0.98
2022-09-10T10:54:33.102Z,0.90
2022-09-10T10:57:41.740Z,0.70
2022-09-10T11:00:20.291Z,1.30
2022-09-10T11:03:11.431Z,3.30
2022-09-10T11:05:41.520Z,1.55
2022-09-10T11:08:25.020Z,1.38
2022-09-10T11:11:13.509Z,1.30
2022-09-10T11:13:56.598Z,1.25
2022-09-10T11:16:33.242Z,1.10
2022-09-10T11:19:18.060Z,0.80
2022-09-10T11:21:54.724Z,0.40
2022-09-10T11:24:29.683Z,0.60
2022-09-10T11:27:06.548Z,0.73
2022-09-10T11:29:54.757Z,0.52
2022-09-10T11:32:28.768Z,0.70
2022-09-10T11:35:19.713Z,1.58
2022-09-10T11:38:23.407Z,0.60
2022-09-10T11:41:03.966Z,0.43
2022-09-10T11:43:52.138Z,0.40
2022-09-10T11:46:32.441Z,0.60
2022-09-10T11:49:07.967Z,0.77
2022-09-10T11:51:37.899Z,2.60
2022-09-10T11:54:10.203Z,1.70
2022-09-10T11:57:25.015Z,5.20
2022-09-10T11:59:58.210Z,2.47
2022-09-10T12:02:44.441Z,0.95
2022-09-10T12:05:33.026Z,0.60
2022-09-10T12:08:25.237Z,0.60
2022-09-10T12:11:14.121Z,0.70
2022-09-10T12:13:42.609Z,0.88
2022-09-10T12:16:22.827Z,0.57
2022-09-10T12:18:51.452Z,1.45
2022-09-10T12:21:27.621Z,0.90
2022-09-10T12:28:54.294Z,0.45
2022-09-10T12:31:22.106Z,0.70
2022-09-10T12:33:49.323Z,0.65
2022-09-10T12:36:28.471Z,0.70
2022-09-10T13:05:59.215Z,0.90
2022-09-10T13:18:43.625Z,1.35
